Airfield :
LOGIN :

Register | Disclaimer

   EN    FR    IT 

 










Legend :    VFR   Marginal VFR   IFR   Intensive IFR   Very Intensive IFR
Visi :
Ceiling :
>= 8 km
>= 3000ft
5 to 8 km
1000 to 3000 ft
1500m to 5 km
500 to 1000 ft
800 to 1500m
200 to 500 ft
< 800m
< 200 ft
Symbols :   Thunderstorms  Fog  Heavy snow  Heavy precipitations  Wind > 20 kt
SIGMETs :     Misc.  Thunderstorms  Icing  Turbulence  Mountain Waves  Volcanic Ashes






- Airport Elevation : 142 ft
- IATA code : ALC


LEAL - Alicante

CURRENT METAR :
  • 291730Z 08005KT 050V130 CAVOK 23/11 Q1014 NOSIG

EXPIRED METARs :
  • 291700Z 08006KT 050V110 CAVOK 23/10 Q1014 NOSIG
  • 291630Z 08007KT 050V110 CAVOK 24/10 Q1014 NOSIG
  • 291600Z 09007KT 060V120 CAVOK 24/10 Q1014 NOSIG
  • 291530Z 08008KT CAVOK 24/10 Q1015 NOSIG
  • 291500Z 08008KT 050V120 CAVOK 24/11 Q1015 NOSIG

TAF TAF LEAL
Valid from the 29 at 18:00 until the 30 at 18:00 UTC


291700Z 2918/3018 08010KT CAVOK TX26/3012Z TN16/3006Z
BECMG 2919/2921 VRB04KT
BECMG 3007/3009 10010KT



MET'MAP, your aeronautical weather chart ! - Copyright ORBIFLY December 2007 - Disclaimer

ORBIFLY MET'MAP TEAM :

Programming & Development : Alexandra Zaïnal
Concept & original design : Baudouin d'Aumeries
Assistance for programming : Marc-Olivier Méhu
Technical & hardware support : Manuel Goepfert

Contact : metmap@orbifly.com




SOURCES & CREDITS :

   NOAA